Time;durP1;ratioP1;P1;durP2;ratioP2;P2;SDS_P1;SDS_P2;PMS_P1;PMS_P2;Temp;Humidity;BMP_temperature;BMP_pressure;BME280_temperature;BME280_humidity;BME280_pressure;Samples;Min_cycle;Max_cycle;Signal;HPM_P1;HPM_P2
2021/11/19 00:01:58;;;;;;;7.20;3.40;;;10.40;98.00;;;;;;5021350;28;20038;-79
2021/11/19 00:04:25;;;;;;;13.60;4.85;;;10.40;98.00;;;;;;5014561;28;20471;-79
2021/11/19 00:06:51;;;;;;;11.20;3.95;;;10.40;98.10;;;;;;5011623;28;20029;-80
2021/11/19 00:09:17;;;;;;;11.43;3.97;;;10.30;98.10;;;;;;5028256;28;20025;-79
2021/11/19 00:11:45;;;;;;;8.68;4.07;;;10.30;98.30;;;;;;5024206;28;20041;-80
2021/11/19 00:14:11;;;;;;;8.57;3.97;;;10.30;98.20;;;;;;5022515;28;20034;-79
2021/11/19 00:16:40;;;;;;;7.85;4.25;;;10.30;98.20;;;;;;5022895;28;20324;-80
2021/11/19 00:19:07;;;;;;;9.98;3.35;;;10.30;98.40;;;;;;5036292;28;20029;-79
2021/11/19 00:21:35;;;;;;;9.10;3.92;;;10.30;98.30;;;;;;5028578;28;20037;-81
2021/11/19 00:24:01;;;;;;;8.88;3.17;;;10.30;98.40;;;;;;5026517;28;20470;-81
2021/11/19 00:26:27;;;;;;;8.95;4.03;;;10.30;98.30;;;;;;5024633;28;20363;-80
2021/11/19 00:28:53;;;;;;;9.82;3.72;;;10.30;98.50;;;;;;5026289;28;20062;-79
2021/11/19 00:31:20;;;;;;;6.20;3.63;;;10.30;98.60;;;;;;5026664;28;20017;-80
2021/11/19 00:33:46;;;;;;;13.68;4.30;;;10.30;98.60;;;;;;5021346;28;20044;-80
2021/11/19 00:36:14;;;;;;;13.48;3.47;;;10.40;98.50;;;;;;5018758;28;20026;-79
2021/11/19 00:38:41;;;;;;;13.10;3.75;;;10.30;98.70;;;;;;5020448;28;20044;-80
2021/11/19 00:41:09;;;;;;;8.85;3.80;;;10.30;98.80;;;;;;5016358;28;20026;-80
2021/11/19 00:43:36;;;;;;;10.23;3.47;;;10.30;98.80;;;;;;5033126;28;20037;-80
2021/11/19 00:46:03;;;;;;;8.10;3.85;;;10.30;98.80;;;;;;5022330;28;20037;-80
2021/11/19 00:48:31;;;;;;;15.07;4.03;;;10.30;98.80;;;;;;5019826;28;20040;-80
2021/11/19 00:51:09;;;;;;;14.60;3.95;;;10.40;98.90;;;;;;5030416;28;20037;-80
2021/11/19 00:53:36;;;;;;;11.60;4.63;;;10.30;98.90;;;;;;5019927;28;20040;-80
2021/11/19 00:56:02;;;;;;;8.73;4.03;;;10.30;98.90;;;;;;5015157;28;20629;-80
2021/11/19 00:58:28;;;;;;;14.63;4.60;;;10.30;99.10;;;;;;5022553;28;20052;-80
2021/11/19 01:00:58;;;;;;;8.57;3.65;;;10.30;99.10;;;;;;5019339;28;20458;-80
2021/11/19 01:03:25;;;;;;;8.35;3.58;;;10.30;99.10;;;;;;5022262;28;20033;-80
2021/11/19 01:05:51;;;;;;;6.68;3.10;;;10.30;99.20;;;;;;5024076;28;20091;-80
2021/11/19 01:08:18;;;;;;;9.68;4.07;;;10.40;99.20;;;;;;5021919;28;20467;-79
2021/11/19 01:10:44;;;;;;;8.70;3.60;;;10.40;99.20;;;;;;5022661;28;20018;-79
2021/11/19 01:13:10;;;;;;;10.32;3.53;;;10.40;99.10;;;;;;5028893;28;20057;-80
2021/11/19 01:15:49;;;;;;;11.52;4.20;;;10.50;99.10;;;;;;5026061;28;20057;-79
2021/11/19 01:18:37;;;;;;;11.77;3.97;;;10.40;99.10;;;;;;5031065;28;20033;-79
2021/11/19 01:21:17;;;;;;;6.50;3.15;;;10.50;99.20;;;;;;5044668;28;20049;-79
2021/11/19 01:23:43;;;;;;;8.48;3.78;;;10.50;99.10;;;;;;5054387;28;20033;-79
2021/11/19 01:26:21;;;;;;;11.50;4.18;;;10.40;99.10;;;;;;5048647;28;20035;-79
2021/11/19 01:28:56;;;;;;;8.77;4.00;;;10.50;99.20;;;;;;5036682;28;20436;-81
2021/11/19 01:31:25;;;;;;;7.68;4.20;;;10.50;99.20;;;;;;5026014;28;20124;-80
2021/11/19 01:33:51;;;;;;;8.95;4.15;;;10.40;99.30;;;;;;5031132;28;20034;-80
2021/11/19 01:36:19;;;;;;;13.43;4.20;;;10.40;99.30;;;;;;5020823;28;20033;-80
2021/11/19 01:38:46;;;;;;;14.63;4.38;;;10.50;99.40;;;;;;5025369;28;20383;-79
2021/11/19 01:41:16;;;;;;;10.27;4.45;;;10.50;99.20;;;;;;5026578;28;20030;-80
2021/11/19 01:43:43;;;;;;;7.57;3.60;;;10.50;99.20;;;;;;5026743;28;20138;-81
2021/11/19 01:46:13;;;;;;;10.98;4.80;;;10.50;99.20;;;;;;5032392;28;20040;-80
2021/11/19 01:48:41;;;;;;;8.75;4.28;;;10.50;99.20;;;;;;5022605;28;20083;-80
2021/11/19 01:51:31;;;;;;;12.05;4.55;;;10.50;99.20;;;;;;5034992;28;20077;-80
2021/11/19 01:54:10;;;;;;;7.25;3.85;;;10.50;99.40;;;;;;5023762;28;20095;-80
2021/11/19 01:56:44;;;;;;;9.23;4.47;;;10.50;99.20;;;;;;5026135;28;20112;-81
2021/11/19 01:59:39;;;;;;;12.70;4.40;;;10.50;99.30;;;;;;5024034;28;20116;-79
2021/11/19 02:02:14;;;;;;;10.15;3.83;;;10.50;99.30;;;;;;5016820;28;20042;-79
2021/11/19 02:04:45;;;;;;;11.95;5.35;;;10.50;99.30;;;;;;5028064;28;20083;-80
2021/11/19 02:07:18;;;;;;;9.90;4.88;;;10.50;99.40;;;;;;5016310;28;20046;-80
2021/11/19 02:10:06;;;;;;;12.65;5.07;;;10.50;99.40;;;;;;5025965;28;20553;-79
2021/11/19 02:12:55;;;;;;;9.48;4.13;;;10.50;99.40;;;;;;5019665;28;20100;-79
2021/11/19 02:15:24;;;;;;;7.88;3.95;;;10.50;99.30;;;;;;5022623;28;20497;-79
2021/11/19 02:17:53;;;;;;;12.93;4.38;;;10.60;99.30;;;;;;5024413;28;20497;-79
2021/11/19 02:20:25;;;;;;;9.50;4.15;;;10.60;99.20;;;;;;5021698;28;20356;-78
2021/11/19 02:22:56;;;;;;;11.65;5.13;;;10.60;99.10;;;;;;5021531;28;20497;-79
2021/11/19 02:25:34;;;;;;;6.63;4.07;;;10.60;99.10;;;;;;5012784;28;20505;-80
2021/11/19 02:28:04;;;;;;;10.75;3.17;;;10.60;99.10;;;;;;5016496;28;20124;-79
2021/11/19 02:30:55;;;;;;;7.07;3.40;;;10.60;99.20;;;;;;5035592;28;20041;-79
2021/11/19 02:33:23;;;;;;;9.63;4.07;;;10.60;99.10;;;;;;5029380;28;20037;-79
2021/11/19 02:36:05;;;;;;;11.45;4.22;;;10.60;99.10;;;;;;5012976;28;20037;-79
2021/11/19 02:38:47;;;;;;;6.88;4.25;;;10.60;99.20;;;;;;5010440;28;20057;-81
2021/11/19 02:41:16;;;;;;;9.63;4.37;;;10.60;99.20;;;;;;5036120;28;20094;-79
2021/11/19 02:43:51;;;;;;;7.38;3.78;;;10.60;99.30;;;;;;5018130;28;20123;-80
2021/11/19 02:46:20;;;;;;;11.88;4.35;;;10.60;99.30;;;;;;5020266;28;20382;-78
2021/11/19 02:48:46;;;;;;;12.73;3.90;;;10.70;99.40;;;;;;5020821;28;20025;-80
2021/11/19 02:51:13;;;;;;;7.60;3.40;;;10.70;99.20;;;;;;5029555;28;20046;-78
2021/11/19 02:53:39;;;;;;;10.85;4.13;;;10.70;99.10;;;;;;5019210;28;20095;-79
2021/11/19 02:56:05;;;;;;;11.68;4.93;;;10.70;99.10;;;;;;5011262;28;20026;-80
2021/11/19 02:58:36;;;;;;;5.93;3.83;;;10.70;99.30;;;;;;5020545;28;20528;-78
2021/11/19 03:01:07;;;;;;;6.93;4.05;;;10.70;99.20;;;;;;5031190;28;20029;-80
2021/11/19 03:03:34;;;;;;;13.40;3.70;;;10.70;99.20;;;;;;5028145;28;20049;-80
2021/11/19 03:06:00;;;;;;;9.50;4.30;;;10.70;99.30;;;;;;5023906;28;20029;-79
2021/11/19 03:08:27;;;;;;;11.15;3.80;;;10.70;99.20;;;;;;5023166;28;20386;-81
2021/11/19 03:10:55;;;;;;;8.25;4.10;;;10.80;99.20;;;;;;5035284;28;20184;-78
2021/11/19 03:13:23;;;;;;;11.70;3.67;;;10.80;99.20;;;;;;5025377;28;20029;-79
2021/11/19 03:15:50;;;;;;;7.43;4.13;;;10.80;99.20;;;;;;5034870;28;20034;-79
2021/11/19 03:18:18;;;;;;;9.05;3.22;;;10.70;99.30;;;;;;5024381;28;20036;-79
2021/11/19 03:20:46;;;;;;;10.07;3.50;;;10.70;99.30;;;;;;5027929;28;20052;-79
2021/11/19 03:23:12;;;;;;;5.68;3.08;;;10.70;99.30;;;;;;5028974;28;20037;-80
2021/11/19 03:25:39;;;;;;;7.15;3.53;;;10.70;99.40;;;;;;5026909;28;20176;-80
2021/11/19 03:28:06;;;;;;;8.48;4.35;;;10.70;99.40;;;;;;5022850;28;20026;-81
2021/11/19 03:30:33;;;;;;;8.80;4.05;;;10.80;99.40;;;;;;5021633;28;20500;-79
2021/11/19 03:32:59;;;;;;;7.47;4.22;;;10.90;99.40;;;;;;5024954;28;20083;-79
2021/11/19 03:35:27;;;;;;;13.98;4.20;;;10.80;99.40;;;;;;5010574;28;20036;-79
2021/11/19 03:37:53;;;;;;;6.18;3.60;;;10.80;99.50;;;;;;5018919;28;20040;-81
2021/11/19 03:40:27;;;;;;;6.97;3.35;;;10.80;99.50;;;;;;5025413;28;20092;-80
2021/11/19 03:42:53;;;;;;;8.63;3.72;;;10.80;99.50;;;;;;5027003;28;20029;-79
2021/11/19 03:45:23;;;;;;;6.63;3.75;;;10.80;99.60;;;;;;5014755;28;20410;-79
2021/11/19 03:47:52;;;;;;;8.07;4.47;;;10.70;99.60;;;;;;5022341;28;20065;-79
2021/11/19 03:50:47;;;;;;;9.15;4.63;;;10.70;99.60;;;;;;5019119;28;20059;-80
2021/11/19 03:53:15;;;;;;;11.80;3.97;;;10.80;99.60;;;;;;5017367;28;20176;-80
2021/11/19 03:55:46;;;;;;;9.85;3.92;;;10.80;99.60;;;;;;5028599;28;20040;-79
2021/11/19 03:58:16;;;;;;;8.52;3.63;;;10.80;99.60;;;;;;5041583;28;20038;-80
2021/11/19 04:00:49;;;;;;;6.65;3.67;;;10.80;99.70;;;;;;5042135;28;20021;-80
2021/11/19 04:03:15;;;;;;;8.45;4.50;;;10.90;99.60;;;;;;5036498;28;20478;-79
2021/11/19 04:05:43;;;;;;;5.05;3.42;;;10.90;99.70;;;;;;5011681;28;20495;-80
2021/11/19 04:08:09;;;;;;;8.38;4.10;;;10.90;99.80;;;;;;5020567;28;20036;-78
2021/11/19 04:10:35;;;;;;;5.68;4.05;;;10.90;99.70;;;;;;5021586;28;20034;-79
2021/11/19 04:13:01;;;;;;;9.30;3.95;;;10.90;99.80;;;;;;5023445;28;20045;-78
2021/11/19 04:15:31;;;;;;;7.50;4.60;;;10.80;99.90;;;;;;5022587;28;20094;-78
2021/11/19 04:17:57;;;;;;;6.45;4.50;;;10.80;99.90;;;;;;5017420;28;20025;-79
2021/11/19 04:20:24;;;;;;;8.40;4.10;;;10.80;99.90;;;;;;5022832;28;20033;-79
2021/11/19 04:22:50;;;;;;;6.70;3.85;;;10.90;99.90;;;;;;5017893;28;20044;-79
2021/11/19 04:25:19;;;;;;;6.85;4.05;;;10.90;99.90;;;;;;5035824;28;20029;-79
2021/11/19 04:27:45;;;;;;;10.27;3.63;;;10.90;99.90;;;;;;5023324;28;20036;-78
2021/11/19 04:30:15;;;;;;;7.75;3.72;;;10.90;99.80;;;;;;5023266;28;20033;-79
2021/11/19 04:32:42;;;;;;;9.88;5.03;;;11.00;99.80;;;;;;5022013;28;20030;-79
2021/11/19 04:35:08;;;;;;;8.18;3.97;;;10.90;99.80;;;;;;5018149;28;20094;-79
2021/11/19 04:37:34;;;;;;;8.95;4.68;;;10.90;99.90;;;;;;5020441;28;20030;-80
2021/11/19 04:39:59;;;;;;;11.35;3.72;;;10.90;99.90;;;;;;5024683;28;20034;-79
2021/11/19 04:42:25;;;;;;;8.98;4.40;;;11.00;99.90;;;;;;5024353;28;20041;-79
2021/11/19 04:44:51;;;;;;;7.53;4.38;;;10.90;99.90;;;;;;5024283;28;20065;-79
2021/11/19 04:47:18;;;;;;;4.40;3.50;;;10.90;99.90;;;;;;5033959;28;20152;-78
2021/11/19 04:49:43;;;;;;;6.45;3.53;;;10.90;99.90;;;;;;5023494;28;20048;-79
2021/11/19 04:52:11;;;;;;;7.93;3.78;;;10.90;99.90;;;;;;5025361;28;20034;-79
2021/11/19 04:54:37;;;;;;;9.25;4.10;;;11.00;99.90;;;;;;5022328;28;20156;-79
2021/11/19 04:57:03;;;;;;;8.77;4.00;;;10.90;99.90;;;;;;5020738;28;20069;-79
2021/11/19 04:59:30;;;;;;;7.55;3.85;;;11.00;99.90;;;;;;5025751;28;20064;-79
2021/11/19 05:01:59;;;;;;;6.75;4.20;;;11.00;99.90;;;;;;5024487;28;20108;-79
2021/11/19 05:04:25;;;;;;;5.20;3.85;;;10.90;99.90;;;;;;5038241;28;20382;-79
2021/11/19 05:06:50;;;;;;;9.52;4.40;;;10.90;99.90;;;;;;5042522;28;20036;-80
2021/11/19 05:09:16;;;;;;;7.22;3.83;;;10.90;99.90;;;;;;5033040;28;20057;-80
2021/11/19 05:11:55;;;;;;;6.72;3.88;;;10.90;99.90;;;;;;5035448;28;20030;-80
2021/11/19 05:14:21;;;;;;;5.57;3.88;;;11.00;99.90;;;;;;5023331;28;20128;-80
2021/11/19 05:16:48;;;;;;;6.63;4.80;;;11.00;99.90;;;;;;5030217;28;20060;-81
2021/11/19 05:19:14;;;;;;;8.95;4.38;;;11.00;99.90;;;;;;5027297;28;20094;-80
2021/11/19 05:21:40;;;;;;;9.55;5.15;;;11.00;99.90;;;;;;5019430;28;20471;-80
2021/11/19 05:24:08;;;;;;;6.18;4.18;;;11.00;99.90;;;;;;5027863;28;20037;-80
2021/11/19 05:26:35;;;;;;;9.13;4.03;;;11.00;99.90;;;;;;5026746;28;20025;-81
2021/11/19 05:29:01;;;;;;;7.57;5.05;;;11.00;99.90;;;;;;5028249;28;20029;-80
2021/11/19 05:31:26;;;;;;;7.63;4.40;;;11.00;99.90;;;;;;5032179;28;20033;-79
2021/11/19 05:33:53;;;;;;;8.77;4.57;;;11.00;99.90;;;;;;5024305;28;20316;-81
2021/11/19 05:36:19;;;;;;;6.80;4.47;;;11.00;99.90;;;;;;5021037;28;20104;-79
2021/11/19 05:38:44;;;;;;;6.55;4.40;;;11.00;99.90;;;;;;5027819;28;20156;-79
2021/11/19 05:41:13;;;;;;;11.63;4.57;;;11.00;99.90;;;;;;5032772;28;20037;-80
2021/11/19 05:43:41;;;;;;;7.68;4.90;;;11.00;99.90;;;;;;5020297;28;20368;-80
2021/11/19 05:46:08;;;;;;;10.88;4.50;;;11.00;99.90;;;;;;5024526;28;20475;-81
2021/11/19 05:48:34;;;;;;;5.70;4.05;;;10.90;99.90;;;;;;5021746;28;20037;-80
2021/11/19 05:51:00;;;;;;;10.10;3.97;;;10.90;99.90;;;;;;5022754;28;20033;-80
2021/11/19 05:53:26;;;;;;;6.47;4.22;;;10.90;99.90;;;;;;5023651;28;20371;-80
2021/11/19 05:55:52;;;;;;;7.72;4.22;;;10.90;99.90;;;;;;5025536;28;20030;-80
2021/11/19 05:58:19;;;;;;;7.47;4.60;;;10.90;99.90;;;;;;5014538;28;20040;-79
2021/11/19 06:00:56;;;;;;;7.57;4.90;;;10.90;99.90;;;;;;5019444;28;20057;-81
2021/11/19 06:03:22;;;;;;;8.75;4.70;;;10.90;99.90;;;;;;5027043;28;20061;-80
2021/11/19 06:05:48;;;;;;;9.13;5.00;;;10.90;99.90;;;;;;5030942;28;20029;-80
2021/11/19 06:08:13;;;;;;;10.23;4.45;;;10.90;99.90;;;;;;5029784;28;20039;-82
2021/11/19 06:10:49;;;;;;;9.80;5.30;;;10.90;99.90;;;;;;5012273;28;20163;-80
2021/11/19 06:13:18;;;;;;;9.85;4.43;;;11.00;99.90;;;;;;5010919;28;20038;-80
2021/11/19 06:15:49;;;;;;;7.53;5.07;;;11.00;99.90;;;;;;5027401;28;20030;-79
2021/11/19 06:18:22;;;;;;;8.55;4.60;;;11.00;99.90;;;;;;5014574;28;20372;-79
2021/11/19 06:20:52;;;;;;;8.38;4.50;;;11.00;99.90;;;;;;5030516;28;20049;-80
2021/11/19 06:23:22;;;;;;;8.10;4.40;;;11.00;99.90;;;;;;5028998;28;20469;-79
2021/11/19 06:25:48;;;;;;;6.45;3.88;;;11.00;99.90;;;;;;5030206;28;20033;-79
2021/11/19 06:28:23;;;;;;;7.30;4.57;;;11.00;99.90;;;;;;5024866;28;20643;-79
2021/11/19 06:30:49;;;;;;;8.23;4.38;;;11.10;99.90;;;;;;5030489;28;20179;-80
2021/11/19 06:33:14;;;;;;;10.02;4.90;;;11.10;99.90;;;;;;5031061;28;20030;-79
2021/11/19 06:35:40;;;;;;;7.30;5.15;;;11.10;99.90;;;;;;5030255;28;20034;-80
2021/11/19 06:38:06;;;;;;;8.75;5.03;;;11.10;99.90;;;;;;5030627;28;20105;-79
2021/11/19 06:40:34;;;;;;;7.00;4.75;;;11.10;99.90;;;;;;5030928;28;20025;-79
2021/11/19 06:43:00;;;;;;;8.63;4.38;;;11.10;99.90;;;;;;5030906;28;20060;-80
2021/11/19 06:45:27;;;;;;;13.70;4.13;;;11.10;99.90;;;;;;5027862;28;20029;-80
2021/11/19 06:47:54;;;;;;;5.30;4.60;;;11.00;99.90;;;;;;5010134;28;20033;-80
2021/11/19 06:50:24;;;;;;;6.93;4.53;;;11.10;99.90;;;;;;5027839;28;20083;-79
2021/11/19 06:52:50;;;;;;;6.15;4.32;;;11.10;99.90;;;;;;5025536;28;20033;-79
2021/11/19 06:55:16;;;;;;;8.25;4.28;;;11.10;99.90;;;;;;5010271;28;20112;-80
2021/11/19 06:57:42;;;;;;;7.63;4.82;;;11.10;99.90;;;;;;5026371;28;20113;-80
2021/11/19 07:00:16;;;;;;;7.78;4.63;;;11.10;99.90;;;;;;5023541;28;20039;-80
2021/11/19 07:02:41;;;;;;;7.60;4.53;;;11.10;99.90;;;;;;5028783;28;20033;-80
2021/11/19 07:05:07;;;;;;;7.10;4.45;;;11.10;99.90;;;;;;5015684;28;20496;-81
2021/11/19 07:07:34;;;;;;;12.10;5.00;;;11.10;99.90;;;;;;5027833;28;20037;-79
2021/11/19 07:09:59;;;;;;;5.25;4.03;;;11.10;99.90;;;;;;5018048;28;20099;-81
2021/11/19 07:12:25;;;;;;;8.15;4.40;;;11.10;99.90;;;;;;5027881;28;20025;-80
2021/11/19 07:14:50;;;;;;;6.60;4.30;;;11.20;99.90;;;;;;5016415;28;20045;-81
2021/11/19 07:17:16;;;;;;;6.45;4.07;;;11.20;99.90;;;;;;5029749;28;20044;-80
2021/11/19 07:19:43;;;;;;;5.30;3.95;;;11.20;99.90;;;;;;5027225;28;20029;-81
2021/11/19 07:22:09;;;;;;;8.57;4.72;;;11.20;99.90;;;;;;5024545;28;20030;-81
2021/11/19 07:24:37;;;;;;;5.75;4.05;;;11.30;99.90;;;;;;5011123;28;20048;-80
2021/11/19 07:27:03;;;;;;;7.28;3.75;;;11.40;99.90;;;;;;5028252;28;20037;-81
2021/11/19 07:29:29;;;;;;;6.43;3.85;;;11.40;99.90;;;;;;5026804;28;20033;-81
2021/11/19 07:31:54;;;;;;;5.53;3.95;;;11.30;99.90;;;;;;5018588;28;20474;-81
2021/11/19 07:34:20;;;;;;;5.20;3.58;;;11.30;99.90;;;;;;5024991;28;20736;-80
2021/11/19 07:36:46;;;;;;;6.45;4.13;;;11.30;99.90;;;;;;5008824;28;20134;-81
2021/11/19 07:39:12;;;;;;;5.18;3.58;;;11.30;99.90;;;;;;5021829;28;20087;-81
2021/11/19 07:41:38;;;;;;;6.15;3.75;;;11.40;99.90;;;;;;5016351;28;20030;-80
2021/11/19 07:44:05;;;;;;;5.45;4.07;;;11.40;99.90;;;;;;5023726;28;20613;-81
2021/11/19 07:46:31;;;;;;;4.10;3.35;;;11.40;99.90;;;;;;5029195;28;20516;-81
2021/11/19 07:48:58;;;;;;;5.05;3.63;;;11.50;99.90;;;;;;5028447;28;20033;-81
2021/11/19 07:51:27;;;;;;;4.32;3.92;;;11.50;99.90;;;;;;5026473;28;20030;-81
2021/11/19 07:53:54;;;;;;;6.30;3.80;;;11.50;99.90;;;;;;5016196;28;20179;-80
2021/11/19 07:56:29;;;;;;;3.53;2.97;;;11.50;99.90;;;;;;5011165;28;20405;-82
2021/11/19 07:58:55;;;;;;;3.90;3.35;;;11.60;99.90;;;;;;5032328;28;20041;-80
2021/11/19 08:01:21;;;;;;;4.88;3.40;;;11.60;99.90;;;;;;5045136;28;20036;-81
2021/11/19 08:03:47;;;;;;;7.25;3.42;;;11.60;99.90;;;;;;5035533;28;20037;-81
2021/11/19 08:06:13;;;;;;;3.95;2.58;;;11.60;99.90;;;;;;5044349;28;20026;-81
2021/11/19 08:08:39;;;;;;;3.95;3.17;;;11.70;99.90;;;;;;5036152;28;20060;-82
2021/11/19 08:11:08;;;;;;;4.82;3.60;;;11.70;99.90;;;;;;5044945;28;20021;-80
2021/11/19 08:13:35;;;;;;;4.43;3.28;;;11.80;99.90;;;;;;5041987;28;20076;-80
2021/11/19 08:16:01;;;;;;;3.95;3.53;;;11.80;99.90;;;;;;5028842;28;20091;-80
2021/11/19 08:18:30;;;;;;;4.45;3.40;;;11.80;99.90;;;;;;5036987;28;20493;-81
2021/11/19 08:20:57;;;;;;;4.05;2.88;;;11.70;99.90;;;;;;5025757;28;20029;-81
2021/11/19 08:23:33;;;;;;;5.60;3.22;;;11.70;99.90;;;;;;4979097;28;978316;-80
2021/11/19 08:26:03;;;;;;;4.78;3.35;;;11.70;99.90;;;;;;5020773;28;20497;-80
2021/11/19 08:28:31;;;;;;;5.18;2.80;;;11.70;99.90;;;;;;5028204;28;20244;-80
2021/11/19 08:30:56;;;;;;;3.78;3.10;;;11.70;99.90;;;;;;5028732;28;20033;-81
2021/11/19 08:33:22;;;;;;;3.53;3.00;;;11.70;99.90;;;;;;5030166;28;20033;-84
2021/11/19 08:35:47;;;;;;;4.70;2.80;;;11.70;99.90;;;;;;5024089;28;20171;-80
2021/11/19 08:38:19;;;;;;;5.00;2.88;;;11.70;99.90;;;;;;5030891;28;20116;-81
2021/11/19 08:40:46;;;;;;;4.03;2.87;;;11.70;99.90;;;;;;5022532;28;20041;-79
2021/11/19 08:43:18;;;;;;;4.38;3.28;;;11.80;99.90;;;;;;5024547;28;20037;-80
2021/11/19 08:45:44;;;;;;;7.07;3.17;;;11.70;99.90;;;;;;5031557;28;20068;-78
2021/11/19 08:48:10;;;;;;;3.47;2.88;;;11.70;99.90;;;;;;5030736;28;20482;-79
2021/11/19 08:50:39;;;;;;;4.75;3.15;;;11.80;99.90;;;;;;5029587;28;20025;-80
2021/11/19 08:53:08;;;;;;;4.70;3.47;;;11.70;99.90;;;;;;5024692;28;20025;-79
2021/11/19 08:55:34;;;;;;;4.28;2.75;;;11.80;99.90;;;;;;5021406;28;20045;-81
2021/11/19 08:57:59;;;;;;;4.20;3.05;;;11.90;99.90;;;;;;5015525;28;20026;-79
2021/11/19 09:00:28;;;;;;;4.18;2.55;;;11.80;99.90;;;;;;5028655;28;20486;-81
2021/11/19 09:03:00;;;;;;;3.90;3.50;;;11.80;99.90;;;;;;5023253;28;20062;-79
2021/11/19 09:05:28;;;;;;;6.85;3.47;;;11.80;99.90;;;;;;5024643;28;20029;-79
2021/11/19 09:07:53;;;;;;;5.65;3.30;;;11.70;99.90;;;;;;5014335;28;20040;-78
2021/11/19 09:10:21;;;;;;;4.43;2.65;;;11.80;99.90;;;;;;5012863;28;20434;-79
2021/11/19 09:12:48;;;;;;;3.00;2.53;;;11.80;99.90;;;;;;5031083;28;20068;-79
2021/11/19 09:15:19;;;;;;;3.30;3.00;;;11.90;99.90;;;;;;5031328;28;20033;-78
2021/11/19 09:18:16;;;;;;;4.13;2.58;;;12.00;99.90;;;;;;5029536;28;20481;-78
2021/11/19 09:20:54;;;;;;;4.07;2.95;;;12.10;99.90;;;;;;5014245;28;20036;-80
2021/11/19 09:23:30;;;;;;;10.35;2.80;;;12.10;99.90;;;;;;5017286;28;20045;-78
2021/11/19 09:25:59;;;;;;;3.42;3.00;;;12.10;99.80;;;;;;5030446;28;20033;-81
2021/11/19 09:28:27;;;;;;;4.15;2.75;;;12.10;99.80;;;;;;5025611;28;20033;-78
2021/11/19 09:30:57;;;;;;;4.60;2.42;;;12.20;99.70;;;;;;5011721;28;20038;-79
2021/11/19 09:33:24;;;;;;;3.75;2.75;;;12.20;99.80;;;;;;5016136;28;20040;-78
2021/11/19 09:35:50;;;;;;;4.55;2.70;;;12.20;99.50;;;;;;5030328;28;20053;-78
2021/11/19 09:38:19;;;;;;;2.92;2.60;;;12.30;99.60;;;;;;5028799;28;20044;-79
2021/11/19 09:40:54;;;;;;;2.45;2.25;;;12.30;99.40;;;;;;5013882;28;20482;-80
2021/11/19 09:43:27;;;;;;;7.68;2.47;;;12.30;99.40;;;;;;5010752;28;20503;-79
2021/11/19 09:46:29;;;;;;;5.32;2.28;;;12.20;99.60;;;;;;5019453;28;20118;-79
2021/11/19 09:49:26;;;;;;;4.17;2.83;;;12.20;99.70;;;;;;5028333;28;20025;-79
2021/11/19 09:52:28;;;;;;;3.80;2.55;;;12.20;99.70;;;;;;5030169;28;20029;-80
2021/11/19 09:55:20;;;;;;;2.50;2.30;;;12.20;99.70;;;;;;5016675;28;20056;-80
2021/11/19 09:58:20;;;;;;;3.03;2.30;;;12.20;99.70;;;;;;5017458;28;20065;-80
2021/11/19 10:01:13;;;;;;;2.90;2.20;;;12.20;99.60;;;;;;5025259;28;20490;-80
2021/11/19 10:04:11;;;;;;;5.40;2.40;;;12.20;99.60;;;;;;5019824;28;20061;-79
2021/11/19 10:06:54;;;;;;;4.25;2.75;;;12.30;99.70;;;;;;5033398;28;20025;-79
2021/11/19 10:09:33;;;;;;;3.30;2.42;;;12.30;99.70;;;;;;5024893;28;20029;-80
2021/11/19 10:12:17;;;;;;;2.72;2.30;;;12.30;99.70;;;;;;5010473;28;20379;-80
2021/11/19 10:15:06;;;;;;;4.72;2.20;;;12.30;99.70;;;;;;5011134;28;20482;-81
2021/11/19 10:18:12;;;;;;;3.40;2.17;;;12.30;99.70;;;;;;5015478;28;20215;-81
2021/11/19 10:20:48;;;;;;;3.08;2.20;;;12.30;99.40;;;;;;5007083;28;20546;-80
2021/11/19 10:23:39;;;;;;;2.88;2.45;;;12.30;99.70;;;;;;5013368;28;20041;-81
2021/11/19 10:26:12;;;;;;;3.67;2.88;;;12.30;99.60;;;;;;5021180;28;20098;-80
2021/11/19 10:28:41;;;;;;;3.40;2.53;;;12.40;99.60;;;;;;5029064;28;20048;-81
2021/11/19 10:31:10;;;;;;;4.22;2.30;;;12.40;99.50;;;;;;5027856;28;20152;-80
2021/11/19 10:33:44;;;;;;;3.40;2.03;;;12.50;99.40;;;;;;5023486;28;20037;-80
2021/11/19 10:36:36;;;;;;;2.80;1.95;;;12.50;99.50;;;;;;5027807;28;20042;-81
2021/11/19 10:39:34;;;;;;;3.75;2.13;;;12.40;99.30;;;;;;5026892;28;20125;-80
2021/11/19 10:42:40;;;;;;;4.63;2.72;;;12.40;99.50;;;;;;5027722;28;20029;-79
2021/11/19 10:45:40;;;;;;;6.68;3.58;;;12.40;99.40;;;;;;5025329;28;20116;-82
2021/11/19 10:48:10;;;;;;;5.57;3.13;;;12.50;99.30;;;;;;5014821;28;20034;-81
2021/11/19 10:51:13;;;;;;;2.72;2.20;;;12.60;99.20;;;;;;5017906;28;20026;-81
2021/11/19 10:54:10;;;;;;;4.00;1.90;;;12.60;99.10;;;;;;5020325;28;20092;-79
2021/11/19 10:56:55;;;;;;;2.20;1.55;;;12.60;98.90;;;;;;5021729;28;20029;-79
2021/11/19 10:59:38;;;;;;;2.00;1.80;;;12.70;99.00;;;;;;5019570;28;20122;-79
2021/11/19 11:02:04;;;;;;;1.98;1.77;;;12.70;98.90;;;;;;5022433;28;20029;-80
2021/11/19 11:05:06;;;;;;;2.78;1.60;;;12.60;98.90;;;;;;5029408;28;20036;-80
2021/11/19 11:07:35;;;;;;;2.25;2.05;;;12.50;99.20;;;;;;5009908;28;20033;-79
2021/11/19 11:10:09;;;;;;;2.25;2.05;;;12.50;99.30;;;;;;5014558;28;20492;-80
2021/11/19 11:12:44;;;;;;;2.10;1.90;;;12.40;99.40;;;;;;5025340;28;20386;-81
2021/11/19 11:15:29;;;;;;;2.05;1.73;;;12.50;99.40;;;;;;5030643;28;20131;-80
2021/11/19 11:18:03;;;;;;;2.75;1.73;;;12.50;99.30;;;;;;5032108;28;20037;-78
2021/11/19 11:20:53;;;;;;;2.50;2.00;;;12.50;99.30;;;;;;5019254;28;20037;-80
2021/11/19 11:23:49;;;;;;;2.22;1.80;;;12.60;99.30;;;;;;5031677;28;20094;-79
2021/11/19 11:26:42;;;;;;;1.88;1.48;;;12.70;99.20;;;;;;5021695;28;20180;-79
2021/11/19 11:29:07;;;;;;;1.65;1.48;;;12.80;99.00;;;;;;5009512;28;20041;-79
2021/11/19 11:32:01;;;;;;;3.50;1.98;;;12.80;98.90;;;;;;5016828;28;20083;-83
2021/11/19 11:34:28;;;;;;;;;;;12.80;98.80;;;;;;5033001;28;20057;-79
2021/11/19 11:37:12;;;;;;;1.85;1.40;;;12.80;98.80;;;;;;5027324;28;19925;-79
2021/11/19 11:39:43;;;;;;;1.83;1.45;;;12.80;98.90;;;;;;5027433;28;20029;-79
2021/11/19 11:42:46;;;;;;;2.08;1.88;;;12.90;98.80;;;;;;5018881;28;20097;-80
2021/11/19 11:45:33;;;;;;;2.20;1.75;;;12.90;98.70;;;;;;5025578;28;20037;-80
2021/11/19 11:48:07;;;;;;;2.17;1.63;;;12.90;98.80;;;;;;5015918;28;20079;-81
2021/11/19 11:51:00;;;;;;;4.00;1.98;;;12.80;98.80;;;;;;5019704;28;20249;-81
2021/11/19 11:54:14;;;;;;;3.30;1.58;;;12.80;98.80;;;;;;5012676;28;20029;-80
2021/11/19 11:56:44;;;;;;;2.50;1.30;;;12.80;99.00;;;;;;5008076;28;20096;-81
2021/11/19 11:59:16;;;;;;;3.22;1.30;;;12.70;99.00;;;;;;5012690;28;20030;-82
2021/11/19 12:01:59;;;;;;;2.00;1.52;;;12.70;99.10;;;;;;5012262;28;20026;-80
2021/11/19 12:04:25;;;;;;;1.75;1.50;;;12.70;99.20;;;;;;5013328;28;20525;-80
2021/11/19 12:07:25;;;;;;;2.00;1.60;;;12.70;99.10;;;;;;5013828;28;20033;-79
2021/11/19 12:10:05;;;;;;;1.73;1.30;;;12.60;99.30;;;;;;5027601;28;20053;-80
2021/11/19 12:12:33;;;;;;;2.17;1.52;;;12.70;99.30;;;;;;5028755;28;20029;-79
2021/11/19 12:15:07;;;;;;;2.00;1.60;;;12.70;99.20;;;;;;5027885;28;20033;-80
2021/11/19 12:17:37;;;;;;;1.15;1.05;;;12.80;98.90;;;;;;5027884;28;20040;-82
2021/11/19 12:20:27;;;;;;;1.98;1.60;;;12.80;99.10;;;;;;5026930;28;20474;-80
2021/11/19 12:23:21;;;;;;;2.65;1.30;;;12.80;98.90;;;;;;5017945;28;20125;-81
2021/11/19 12:26:19;;;;;;;2.13;1.45;;;12.80;99.10;;;;;;5026572;28;20029;-80
2021/11/19 12:28:47;;;;;;;2.42;1.58;;;12.80;99.00;;;;;;5024096;28;20026;-79
2021/11/19 12:31:23;;;;;;;5.15;1.80;;;12.90;98.90;;;;;;5026688;28;20029;-81
2021/11/19 12:34:08;;;;;;;1.80;1.40;;;12.80;98.90;;;;;;5025702;28;20100;-79
2021/11/19 12:36:43;;;;;;;1.77;1.52;;;12.70;99.10;;;;;;5027383;28;20033;-80
2021/11/19 12:39:10;;;;;;;2.20;1.40;;;12.70;99.20;;;;;;5025633;28;20510;-80
2021/11/19 12:41:44;;;;;;;1.83;1.35;;;12.70;99.30;;;;;;5026847;28;20025;-82
2021/11/19 12:44:48;;;;;;;2.90;1.35;;;12.70;99.30;;;;;;5028133;28;20627;-80
2021/11/19 12:47:25;;;;;;;;;;;12.70;99.10;;;;;;5027585;28;20029;-82
2021/11/19 12:50:18;;;;;;;2.45;1.80;;;12.70;99.20;;;;;;5014327;28;19908;-80
2021/11/19 12:52:50;;;;;;;1.98;1.77;;;12.70;99.30;;;;;;5026277;28;20372;-81
2021/11/19 12:55:28;;;;;;;3.17;1.73;;;12.60;99.40;;;;;;5015971;28;20554;-79
2021/11/19 12:57:59;;;;;;;2.63;1.60;;;12.60;99.50;;;;;;5023933;28;20505;-80
2021/11/19 13:00:40;;;;;;;2.30;1.60;;;12.40;99.70;;;;;;5011854;28;20490;-81
2021/11/19 13:03:44;;;;;;;2.38;1.67;;;12.40;99.80;;;;;;5018096;28;20026;-80
2021/11/19 13:06:19;;;;;;;2.58;1.90;;;12.50;99.70;;;;;;5027415;28;20170;-78
2021/11/19 13:08:47;;;;;;;2.95;1.48;;;12.50;99.80;;;;;;5014622;28;20033;-79
2021/11/19 13:11:31;;;;;;;4.43;1.40;;;12.50;99.70;;;;;;5025192;28;20036;-80
2021/11/19 13:14:16;;;;;;;1.92;1.60;;;12.50;99.70;;;;;;5015920;28;20088;-80